Terminal Aerodrome Forecast
Issued by NWS

Home | Current Version | Previous Version | Text Only | Print | Product List | Glossary On
Versions: 1 2 3 4 5 6 7 8 9 10 11 12 13 14 15 16 17 18 19 20 21 22 23
000
FTUS45 KSLC 241120
TAFENV
TAF
KENV 241120Z 2412/2512 VRB04KT P6SM FEW070 SCT200
     FM241600 14007KT P6SM SCT120
     FM241800 30009G14KT P6SM SCT120
     FM250200 VRB04KT P6SM BKN120
      AMD LTD TO CLD VIS AND WIND=

USA.gov is the U.S. government's official web portal to all federal, state and local government web resources and services.